createdAt,value
2022-09-02T00:01:00.991Z,7.27
2022-09-02T00:04:05.577Z,7.23
2022-09-02T00:07:07.440Z,7.17
2022-09-02T00:10:09.564Z,7.13
2022-09-02T00:13:14.851Z,7.15
2022-09-02T00:16:17.503Z,7.10
2022-09-02T00:19:24.590Z,7.09
2022-09-02T00:22:26.628Z,7.11
2022-09-02T00:25:28.355Z,7.12
2022-09-02T00:28:31.012Z,7.11
2022-09-02T00:31:33.960Z,7.11
2022-09-02T00:34:35.715Z,7.13
2022-09-02T00:37:38.772Z,7.13
2022-09-02T00:40:45.719Z,7.14
2022-09-02T00:43:59.978Z,7.13
2022-09-02T00:47:02.026Z,7.13
2022-09-02T00:50:08.462Z,7.11
2022-09-02T00:53:11.758Z,7.08
2022-09-02T00:56:20.212Z,6.99
2022-09-02T01:00:09.040Z,6.88
2022-09-02T01:03:13.960Z,6.66
2022-09-02T01:06:21.977Z,6.60
2022-09-02T01:09:23.820Z,6.60
2022-09-02T01:12:26.581Z,6.60
2022-09-02T01:15:31.294Z,6.57
2022-09-02T01:18:33.312Z,6.57
2022-09-02T01:21:35.125Z,6.56
2022-09-02T01:24:36.822Z,6.56
2022-09-02T01:27:39.021Z,6.55
2022-09-02T01:30:44.759Z,6.51
2022-09-02T01:33:46.643Z,6.47
2022-09-02T01:36:49.238Z,6.42
2022-09-02T01:39:52.517Z,6.41
2022-09-02T01:43:01.209Z,6.38
2022-09-02T01:46:03.190Z,6.26
2022-09-02T01:49:05.102Z,6.11
2022-09-02T01:52:07.497Z,5.98
2022-09-02T01:55:09.583Z,5.96
2022-09-02T01:58:11.617Z,5.98
2022-09-02T02:01:13.657Z,5.94
2022-09-02T02:04:16.826Z,5.90
2022-09-02T02:07:20.052Z,5.85
2022-09-02T02:10:22.048Z,5.84
2022-09-02T02:13:23.972Z,5.83
2022-09-02T02:16:25.949Z,5.83
2022-09-02T02:19:28.185Z,5.83
2022-09-02T02:22:29.856Z,5.82
2022-09-02T02:25:31.691Z,5.76
2022-09-02T02:28:33.520Z,5.69
2022-09-02T02:31:35.588Z,5.63
2022-09-02T02:34:37.713Z,5.59
2022-09-02T02:37:39.693Z,5.53
2022-09-02T02:40:41.928Z,5.49
2022-09-02T02:43:43.971Z,5.45
2022-09-02T02:46:45.765Z,5.43
2022-09-02T02:49:47.708Z,5.36
2022-09-02T02:52:50.447Z,5.32
2022-09-02T02:55:52.212Z,5.31
2022-09-02T02:58:53.921Z,5.27
2022-09-02T03:01:56.047Z,5.28
2022-09-02T03:04:58.123Z,5.28
2022-09-02T03:07:59.994Z,5.24
2022-09-02T03:11:01.973Z,5.19
2022-09-02T03:14:05.230Z,5.16
2022-09-02T03:17:07.197Z,5.13
2022-09-02T03:20:09.428Z,5.11
2022-09-02T03:23:13.271Z,5.11
2022-09-02T03:26:19.967Z,5.12
2022-09-02T03:29:22.186Z,5.12
2022-09-02T03:32:24.125Z,5.17
2022-09-02T03:35:30.977Z,5.25
2022-09-02T03:38:32.952Z,5.35
2022-09-02T03:41:35.411Z,5.48
2022-09-02T03:44:37.182Z,5.63
2022-09-02T03:47:44.125Z,5.76
2022-09-02T03:50:47.455Z,5.85
2022-09-02T03:53:49.761Z,5.92
2022-09-02T03:56:51.997Z,5.96
2022-09-02T03:59:54.425Z,5.95
2022-09-02T04:02:56.369Z,5.94
2022-09-02T04:05:58.589Z,5.94
2022-09-02T04:09:01.127Z,5.95
2022-09-02T04:12:05.246Z,5.98
2022-09-02T04:15:08.820Z,6.00
2022-09-02T04:18:11.964Z,6.03
2022-09-02T04:21:14.254Z,6.08
2022-09-02T04:24:16.092Z,6.13
2022-09-02T04:27:17.937Z,6.17
2022-09-02T04:30:20.470Z,6.18
2022-09-02T04:33:22.333Z,6.20
2022-09-02T04:36:25.192Z,6.27
2022-09-02T04:39:30.867Z,6.39
2022-09-02T04:42:34.253Z,6.51
2022-09-02T04:45:38.981Z,6.63
2022-09-02T04:48:44.878Z,6.71
2022-09-02T04:51:47.354Z,6.86
2022-09-02T04:54:49.147Z,6.97
2022-09-02T04:57:51.155Z,7.10
2022-09-02T05:00:52.874Z,7.26
2022-09-02T05:03:55.130Z,7.45
2022-09-02T05:06:58.304Z,7.62
2022-09-02T05:10:00.397Z,7.80
2022-09-02T05:13:02.190Z,8.01
2022-09-02T05:16:04.005Z,8.17
2022-09-02T05:19:09.706Z,8.56
2022-09-02T05:22:11.691Z,9.38
2022-09-02T05:25:13.483Z,10.16
2022-09-02T05:28:16.662Z,10.76
2022-09-02T05:31:21.024Z,11.27
2022-09-02T05:34:23.078Z,11.85
2022-09-02T05:37:25.436Z,12.44
2022-09-02T05:40:28.880Z,13.03
2022-09-02T05:43:30.896Z,13.56
2022-09-02T05:46:32.887Z,14.08
2022-09-02T05:49:34.823Z,14.55
2022-09-02T05:52:36.715Z,14.93
2022-09-02T05:55:38.597Z,15.19
2022-09-02T05:58:40.422Z,15.40
2022-09-02T06:01:42.847Z,14.87
2022-09-02T06:04:48.475Z,14.71
2022-09-02T06:07:50.249Z,14.34
2022-09-02T06:10:51.939Z,13.98
2022-09-02T06:13:55.013Z,14.32
2022-09-02T06:16:57.738Z,14.86
2022-09-02T06:19:59.598Z,15.42
2022-09-02T06:23:01.555Z,15.88
2022-09-02T06:26:03.290Z,15.99
2022-09-02T06:29:05.990Z,16.29
2022-09-02T06:32:07.812Z,16.49
2022-09-02T06:35:10.879Z,16.67
2022-09-02T06:38:14.420Z,16.85
2022-09-02T06:41:23.467Z,16.85
2022-09-02T06:44:25.161Z,17.05
2022-09-02T06:47:27.030Z,17.23
2022-09-02T06:50:28.797Z,17.65
2022-09-02T06:53:30.687Z,17.60
2022-09-02T06:56:33.541Z,17.62
2022-09-02T06:59:36.584Z,17.86
2022-09-02T07:02:38.658Z,17.46
2022-09-02T07:05:40.683Z,17.76
2022-09-02T07:08:43.448Z,18.24
2022-09-02T07:11:48.755Z,18.64
2022-09-02T07:14:50.990Z,18.67
2022-09-02T07:17:54.203Z,18.30
2022-09-02T07:20:56.356Z,18.56
2022-09-02T07:23:59.665Z,19.08
2022-09-02T07:27:01.554Z,19.64
2022-09-02T07:30:05.193Z,20.10
2022-09-02T07:33:07.168Z,20.79
2022-09-02T07:36:12.601Z,21.21
2022-09-02T07:39:16.046Z,21.81
2022-09-02T07:42:19.656Z,22.11
2022-09-02T07:45:21.968Z,22.39
2022-09-02T07:48:24.490Z,22.25
2022-09-02T07:51:31.044Z,21.79
2022-09-02T07:54:35.025Z,21.66
2022-09-02T07:57:37.165Z,22.46
2022-09-02T08:00:39.068Z,22.52
2022-09-02T08:03:44.365Z,22.50
2022-09-02T08:06:46.569Z,22.89
2022-09-02T08:09:48.487Z,23.07
2022-09-02T08:12:51.415Z,23.09
2022-09-02T08:15:54.454Z,23.45
2022-09-02T08:18:56.220Z,23.84
2022-09-02T08:22:08.688Z,24.07
2022-09-02T08:25:11.254Z,23.84
2022-09-02T08:28:14.813Z,23.33
2022-09-02T08:31:16.746Z,22.83
2022-09-02T08:34:18.687Z,22.68
2022-09-02T08:37:20.354Z,22.37
2022-09-02T08:40:25.669Z,21.99
2022-09-02T08:43:40.570Z,22.08
2022-09-02T08:46:42.839Z,21.93
2022-09-02T08:49:48.688Z,22.45
2022-09-02T08:53:16.306Z,22.38
2022-09-02T08:56:19.205Z,22.00
2022-09-02T08:59:23.212Z,21.66
2022-09-02T09:02:47.278Z,21.95
2022-09-02T09:06:01.738Z,22.35
2022-09-02T09:09:31.899Z,22.94
2022-09-02T09:12:33.640Z,22.91
2022-09-02T09:16:04.343Z,23.28
2022-09-02T09:19:18.076Z,23.72
2022-09-02T09:22:22.440Z,24.38
2022-09-02T09:25:29.783Z,24.06
2022-09-02T09:28:31.784Z,23.54
2022-09-02T09:31:35.750Z,23.27
2022-09-02T09:34:53.086Z,23.31
2022-09-02T09:37:55.972Z,23.71
2022-09-02T09:41:14.299Z,24.05
2022-09-02T09:44:34.051Z,23.38
2022-09-02T09:47:35.706Z,22.74
2022-09-02T09:50:38.088Z,22.72
2022-09-02T09:53:40.720Z,23.52
2022-09-02T09:56:42.560Z,23.58
2022-09-02T09:59:47.749Z,23.18
2022-09-02T10:02:52.369Z,23.62
2022-09-02T10:05:57.076Z,24.37
2022-09-02T10:09:04.961Z,23.45
2022-09-02T10:12:12.492Z,22.15
2022-09-02T10:15:14.330Z,22.15
2022-09-02T10:18:37.967Z,22.13
2022-09-02T10:22:07.734Z,22.64
2022-09-02T10:25:25.754Z,23.07
2022-09-02T10:28:31.077Z,23.33
2022-09-02T10:32:06.988Z,23.09
2022-09-02T10:35:27.613Z,23.16
2022-09-02T10:38:37.438Z,23.25
2022-09-02T10:45:25.106Z,22.91
2022-09-02T10:48:54.623Z,22.66
2022-09-02T10:52:33.171Z,22.53
2022-09-02T10:55:59.652Z,22.74
2022-09-02T10:59:10.754Z,22.44
2022-09-02T11:02:23.804Z,23.19
2022-09-02T11:05:35.242Z,24.13
2022-09-02T11:08:50.947Z,24.68
2022-09-02T11:12:04.517Z,25.01
2022-09-02T11:15:18.002Z,25.20
2022-09-02T11:18:26.729Z,24.52
2022-09-02T11:21:37.376Z,24.84
2022-09-02T11:24:50.000Z,25.27
2022-09-02T11:28:26.185Z,25.32
2022-09-02T11:31:50.169Z,24.56
2022-09-02T11:34:55.282Z,24.09
2022-09-02T11:38:03.645Z,23.73
2022-09-02T11:41:36.654Z,23.25
2022-09-02T11:45:02.632Z,22.48
2022-09-02T11:48:10.129Z,22.41
2022-09-02T11:51:39.664Z,22.78
2022-09-02T11:54:43.992Z,23.69
2022-09-02T11:57:54.945Z,24.22
2022-09-02T12:00:58.446Z,24.30
2022-09-02T12:04:48.415Z,23.85
2022-09-02T12:07:29.738Z,23.78
2022-09-02T12:10:47.820Z,23.69
2022-09-02T12:17:09.160Z,23.00
2022-09-02T12:20:31.344Z,23.05
2022-09-02T12:23:52.682Z,23.52
2022-09-02T12:26:54.437Z,22.97
2022-09-02T12:29:57.124Z,22.04
2022-09-02T12:33:13.541Z,21.51
2022-09-02T12:36:37.459Z,21.24
2022-09-02T12:39:39.090Z,21.08
2022-09-02T12:42:41.949Z,21.04
2022-09-02T12:45:48.545Z,21.06
2022-09-02T12:49:01.233Z,21.60
2022-09-02T12:52:06.870Z,22.49
2022-09-02T12:55:29.630Z,22.25
2022-09-02T12:58:46.391Z,22.02
2022-09-02T13:05:29.718Z,21.95
2022-09-02T13:08:46.675Z,21.89
2022-09-02T13:12:09.798Z,21.87
2022-09-02T13:15:23.820Z,21.86
2022-09-02T13:18:44.472Z,21.76
2022-09-02T13:21:48.393Z,21.59
2022-09-02T13:25:18.976Z,21.60
2022-09-02T13:28:45.329Z,21.95
2022-09-02T13:32:01.190Z,22.14
2022-09-02T13:35:06.297Z,22.27
2022-09-02T13:41:32.742Z,22.67
2022-09-02T13:44:35.028Z,22.88
2022-09-02T13:47:37.234Z,22.75
2022-09-02T13:50:43.694Z,22.53
2022-09-02T13:57:12.503Z,21.77
2022-09-02T14:00:17.407Z,21.45
2022-09-02T14:03:22.438Z,21.32
2022-09-02T14:06:36.636Z,21.17
2022-09-02T14:09:39.494Z,21.16
2022-09-02T14:12:42.259Z,21.21
2022-09-02T14:15:44.310Z,21.20
2022-09-02T14:19:14.565Z,21.22
2022-09-02T14:22:26.199Z,21.16
2022-09-02T14:25:32.541Z,21.12
2022-09-02T14:28:35.570Z,21.10
2022-09-02T14:31:38.304Z,21.09
2022-09-02T14:34:42.776Z,20.87
2022-09-02T14:37:52.217Z,20.82
2022-09-02T14:41:05.738Z,20.85
2022-09-02T14:44:13.631Z,20.75
2022-09-02T14:47:17.025Z,20.62
2022-09-02T14:50:26.078Z,20.54
2022-09-02T14:53:27.853Z,20.57
2022-09-02T14:56:45.372Z,20.65
2022-09-02T14:59:48.722Z,20.64
2022-09-02T15:02:56.506Z,20.64
2022-09-02T15:05:58.273Z,20.65
2022-09-02T15:09:00.095Z,20.63
2022-09-02T15:12:02.908Z,20.56
2022-09-02T15:15:05.310Z,20.54
2022-09-02T15:18:09.236Z,20.55
2022-09-02T15:21:11.416Z,20.57
2022-09-02T15:24:13.301Z,20.55
2022-09-02T15:27:15.767Z,20.44
2022-09-02T15:30:20.777Z,20.35
2022-09-02T15:33:22.743Z,20.28
2022-09-02T15:36:26.303Z,20.13
2022-09-02T15:39:28.441Z,20.08
2022-09-02T15:42:30.416Z,20.05
2022-09-02T15:45:32.168Z,20.07
2022-09-02T15:48:33.929Z,20.09
2022-09-02T15:51:36.408Z,20.05
2022-09-02T15:54:38.204Z,20.03
2022-09-02T15:57:41.282Z,20.02
2022-09-02T16:00:43.833Z,20.02
2022-09-02T16:03:45.980Z,20.04
2022-09-02T16:06:49.231Z,20.07
2022-09-02T16:09:50.953Z,20.06
2022-09-02T16:12:52.707Z,20.02
2022-09-02T16:16:01.084Z,19.99
2022-09-02T16:19:05.298Z,19.95
2022-09-02T16:22:07.010Z,19.92
2022-09-02T16:25:09.284Z,19.85
2022-09-02T16:28:12.588Z,19.78
2022-09-02T16:31:20.149Z,19.69
2022-09-02T16:34:22.509Z,19.56
2022-09-02T16:37:24.257Z,19.43
2022-09-02T16:40:26.145Z,19.31
2022-09-02T16:43:28.024Z,19.16
2022-09-02T16:46:30.340Z,19.02
2022-09-02T16:49:32.168Z,18.88
2022-09-02T16:52:35.253Z,18.73
2022-09-02T16:55:41.766Z,18.59
2022-09-02T16:58:43.766Z,18.47
2022-09-02T17:01:45.489Z,18.35
2022-09-02T17:04:47.421Z,18.23
2022-09-02T17:07:49.205Z,18.12
2022-09-02T17:10:51.058Z,18.02
2022-09-02T17:14:01.994Z,17.92
2022-09-02T17:17:03.839Z,17.82
2022-09-02T17:20:06.360Z,17.73
2022-09-02T17:23:08.768Z,17.64
2022-09-02T17:26:10.879Z,17.54
2022-09-02T17:29:47.042Z,17.44
2022-09-02T17:32:40.739Z,17.32
2022-09-02T17:35:42.497Z,17.18
2022-09-02T17:38:45.137Z,17.04
2022-09-02T17:41:57.584Z,16.93
2022-09-02T17:44:59.485Z,16.81
2022-09-02T17:48:19.261Z,16.68
2022-09-02T17:51:24.321Z,16.52
2022-09-02T17:54:30.715Z,16.37
2022-09-02T17:58:09.775Z,16.23
2022-09-02T18:01:19.333Z,16.07
2022-09-02T18:04:43.133Z,15.94
2022-09-02T18:07:50.952Z,15.80
2022-09-02T18:10:58.125Z,15.66
2022-09-02T18:14:03.034Z,15.52
2022-09-02T18:17:27.792Z,15.41
2022-09-02T18:20:43.540Z,15.27
2022-09-02T18:24:14.581Z,15.11
2022-09-02T18:27:30.494Z,14.96
2022-09-02T18:30:49.120Z,14.85
2022-09-02T18:34:05.934Z,14.74
2022-09-02T18:37:45.065Z,14.64
2022-09-02T18:41:13.671Z,14.52
2022-09-02T18:44:43.334Z,14.42
2022-09-02T18:47:49.875Z,14.34
2022-09-02T18:50:57.606Z,14.27
2022-09-02T18:54:04.886Z,14.20
2022-09-02T18:57:07.821Z,14.13
2022-09-02T19:00:12.720Z,14.06
2022-09-02T19:03:14.503Z,13.99
2022-09-02T19:06:19.878Z,13.94
2022-09-02T19:09:24.585Z,13.90
2022-09-02T19:12:31.860Z,13.87
2022-09-02T19:15:33.559Z,13.84
2022-09-02T19:18:38.635Z,13.82
2022-09-02T19:21:48.673Z,13.81
2022-09-02T19:24:58.099Z,13.78
2022-09-02T19:28:02.650Z,13.77
2022-09-02T19:31:04.713Z,13.77
2022-09-02T19:34:08.306Z,13.76
2022-09-02T19:37:12.298Z,13.80
2022-09-02T19:40:18.990Z,13.85
2022-09-02T19:43:21.644Z,13.89
2022-09-02T19:46:57.875Z,13.94
2022-09-02T19:49:45.290Z,14.00
2022-09-02T19:52:49.484Z,14.04
2022-09-02T19:55:51.234Z,14.06
2022-09-02T19:58:52.924Z,14.08
2022-09-02T20:01:54.744Z,14.10
2022-09-02T20:04:56.538Z,14.09
2022-09-02T20:07:58.546Z,14.07
2022-09-02T20:11:02.942Z,14.07
2022-09-02T20:14:04.720Z,14.03
2022-09-02T20:17:11.279Z,13.97
2022-09-02T20:20:17.283Z,13.92
2022-09-02T20:23:20.886Z,13.88
2022-09-02T20:26:31.184Z,13.84
2022-09-02T20:30:00.462Z,13.76
2022-09-02T20:33:22.540Z,13.70
2022-09-02T20:36:29.814Z,13.67
2022-09-02T20:39:51.200Z,13.61
2022-09-02T20:43:03.510Z,13.54
2022-09-02T20:46:11.318Z,13.49
2022-09-02T20:49:35.937Z,13.46
2022-09-02T20:53:03.638Z,13.41
2022-09-02T20:56:12.079Z,13.35
2022-09-02T20:59:31.284Z,13.28
2022-09-02T21:02:40.645Z,13.20
2022-09-02T21:05:48.848Z,13.08
2022-09-02T21:08:59.790Z,12.92
2022-09-02T21:12:10.442Z,12.75
2022-09-02T21:15:26.310Z,12.59
2022-09-02T21:18:58.782Z,12.47
2022-09-02T21:22:10.534Z,12.36
2022-09-02T21:25:38.183Z,12.28
2022-09-02T21:28:48.721Z,12.20
2022-09-02T21:32:00.967Z,12.16
2022-09-02T21:35:12.128Z,12.14
2022-09-02T21:38:24.896Z,12.14
2022-09-02T21:41:43.034Z,12.13
2022-09-02T21:45:20.225Z,12.10
2022-09-02T21:48:51.824Z,12.08
2022-09-02T21:52:05.071Z,12.04
2022-09-02T21:55:27.013Z,12.02
2022-09-02T21:58:40.844Z,11.98
2022-09-02T22:01:55.881Z,11.95
2022-09-02T22:05:03.058Z,11.94
2022-09-02T22:08:31.722Z,11.90
2022-09-02T22:11:47.842Z,11.87
2022-09-02T22:15:01.933Z,11.85
2022-09-02T22:18:17.673Z,11.83
2022-09-02T22:21:48.607Z,11.81
2022-09-02T22:24:52.149Z,11.80
2022-09-02T22:28:05.478Z,11.78
2022-09-02T22:31:11.209Z,11.77
2022-09-02T22:34:16.340Z,11.76
2022-09-02T22:37:22.407Z,11.73
2022-09-02T22:40:26.219Z,11.69
2022-09-02T22:43:36.082Z,11.63
2022-09-02T22:47:14.102Z,11.54
2022-09-02T22:50:39.452Z,11.43
2022-09-02T22:53:41.233Z,11.36
2022-09-02T22:56:53.977Z,11.30
2022-09-02T23:00:10.758Z,11.24
2022-09-02T23:03:39.283Z,11.19
2022-09-02T23:06:41.044Z,11.17
2022-09-02T23:09:43.412Z,11.19
2022-09-02T23:13:02.601Z,11.21
2022-09-02T23:16:35.380Z,11.25
2022-09-02T23:20:31.406Z,11.30
2022-09-02T23:23:39.461Z,11.27
2022-09-02T23:27:10.010Z,11.13
2022-09-02T23:30:12.200Z,10.98
2022-09-02T23:33:58.092Z,10.93
2022-09-02T23:37:36.514Z,10.91
2022-09-02T23:40:44.272Z,10.93
2022-09-02T23:43:46.184Z,10.98
2022-09-02T23:47:13.004Z,11.01
2022-09-02T23:50:34.568Z,11.04
2022-09-02T23:53:55.319Z,11.03
2022-09-02T23:57:44.584Z,11.00
